Time;durP1;ratioP1;P1;durP2;ratioP2;P2;SDS_P1;SDS_P2;PMS_P1;PMS_P2;Temp;Humidity;BMP_temperature;BMP_pressure;BME280_temperature;BME280_humidity;BME280_pressure;Samples;Min_cycle;Max_cycle;Signal;HPM_P1;HPM_P2
2022/07/16 00:03:03;;;;;;;2.55;1.13;;;22.70;73.60;;;;;;13048849;22;20531;-85
2022/07/16 00:08:05;;;;;;;1.30;1.10;;;22.70;73.60;;;;;;13047730;22;20191;-85
2022/07/16 00:13:08;;;;;;;1.00;0.82;;;22.70;73.90;;;;;;13021001;22;20181;-85
2022/07/16 00:23:32;;;;;;;1.13;0.93;;;22.60;74.10;;;;;;13020376;22;20705;-84
2022/07/16 00:28:34;;;;;;;1.10;0.90;;;22.60;74.10;;;;;;13019920;22;20568;-85
2022/07/16 00:33:37;;;;;;;1.20;0.90;;;22.60;74.20;;;;;;13047712;22;20192;-85
2022/07/16 00:38:40;;;;;;;1.52;0.90;;;22.60;74.30;;;;;;13020982;22;20211;-85
2022/07/16 00:43:58;;;;;;;1.33;0.80;;;22.60;74.50;;;;;;13019865;22;20516;-85
2022/07/16 00:49:01;;;;;;;1.50;0.95;;;22.60;74.50;;;;;;13019113;22;20189;-85
2022/07/16 00:54:04;;;;;;;1.77;0.90;;;22.60;74.60;;;;;;13047418;22;20247;-85
2022/07/16 00:59:07;;;;;;;1.17;0.85;;;22.60;74.80;;;;;;13047390;22;20188;-85
2022/07/16 01:04:10;;;;;;;1.30;0.80;;;22.60;75.10;;;;;;13046822;22;20169;-85
2022/07/16 01:09:14;;;;;;;1.10;0.95;;;22.50;75.20;;;;;;13064721;22;20165;-85
2022/07/16 01:14:18;;;;;;;1.17;1.08;;;22.50;75.30;;;;;;13018915;22;20181;-85
2022/07/16 01:19:20;;;;;;;1.98;1.30;;;22.50;75.50;;;;;;13019201;22;20196;-85
2022/07/16 01:24:23;;;;;;;1.90;0.90;;;22.50;75.70;;;;;;13019270;22;20177;-85
2022/07/16 01:29:25;;;;;;;2.03;0.82;;;22.50;76.00;;;;;;13064614;22;20508;-85
2022/07/16 01:34:28;;;;;;;1.60;1.00;;;22.50;76.20;;;;;;13046866;22;20557;-85
2022/07/16 01:39:32;;;;;;;1.58;1.23;;;22.40;76.40;;;;;;13018072;22;20270;-85
2022/07/16 01:44:36;;;;;;;2.55;1.10;;;22.40;76.70;;;;;;13018260;22;20226;-85
2022/07/16 01:49:40;;;;;;;2.38;1.40;;;22.40;76.80;;;;;;13018754;22;20559;-85
2022/07/16 01:54:53;;;;;;;1.50;0.90;;;22.40;77.10;;;;;;13018495;22;20207;-85
2022/07/16 01:59:56;;;;;;;1.85;1.17;;;22.40;77.30;;;;;;13019055;22;20210;-85
2022/07/16 02:04:58;;;;;;;1.13;0.73;;;22.40;77.40;;;;;;13019021;22;20191;-85
2022/07/16 02:10:01;;;;;;;1.80;1.30;;;22.40;77.50;;;;;;13046140;22;20512;-85
2022/07/16 02:15:05;;;;;;;3.13;1.10;;;22.40;77.60;;;;;;13046746;22;20499;-85
2022/07/16 02:20:10;;;;;;;1.05;0.95;;;22.40;77.60;;;;;;13064089;22;20188;-85
2022/07/16 02:25:13;;;;;;;2.80;1.33;;;22.40;77.80;;;;;;12994987;22;20177;-85
2022/07/16 02:30:16;;;;;;;1.10;0.90;;;22.40;77.90;;;;;;13045651;22;20263;-85
2022/07/16 02:35:18;;;;;;;1.67;1.00;;;22.30;78.00;;;;;;13018710;22;20181;-85
2022/07/16 02:40:21;;;;;;;1.50;1.10;;;22.30;78.30;;;;;;13046726;22;20585;-84
2022/07/16 02:45:24;;;;;;;1.55;1.23;;;22.30;78.40;;;;;;13047191;22;20161;-85
2022/07/16 02:50:26;;;;;;;2.47;0.90;;;22.30;78.50;;;;;;13065797;22;20230;-85
2022/07/16 02:55:29;;;;;;;0.90;0.70;;;22.30;78.50;;;;;;13047186;22;20184;-85
2022/07/16 03:00:32;;;;;;;1.52;0.80;;;22.30;78.90;;;;;;13107597;22;20224;-85
2022/07/16 03:05:35;;;;;;;1.67;0.80;;;22.30;79.00;;;;;;13099228;22;20469;-86
2022/07/16 03:10:37;;;;;;;1.63;0.90;;;22.30;79.20;;;;;;13108045;22;20217;-85
2022/07/16 03:15:39;;;;;;;1.88;1.08;;;22.30;79.90;;;;;;13107877;22;20228;-85
2022/07/16 03:20:42;;;;;;;1.10;0.95;;;22.20;79.50;;;;;;13099353;22;20232;-85
2022/07/16 03:25:45;;;;;;;1.85;1.00;;;22.20;79.60;;;;;;13080731;22;20263;-85
2022/07/16 03:30:47;;;;;;;1.20;0.90;;;22.20;79.70;;;;;;13056686;22;20244;-85
2022/07/16 03:35:50;;;;;;;1.17;0.98;;;22.20;79.90;;;;;;13112544;22;20221;-85
2022/07/16 03:40:53;;;;;;;1.15;1.02;;;22.20;80.00;;;;;;13083933;22;20240;-85
2022/07/16 03:45:55;;;;;;;1.92;1.42;;;22.20;80.10;;;;;;13112068;22;20224;-85
2022/07/16 03:50:58;;;;;;;3.08;1.30;;;22.30;80.10;;;;;;13112056;22;20196;-86
2022/07/16 03:56:00;;;;;;;1.40;1.08;;;22.30;80.10;;;;;;13084975;22;20236;-85
2022/07/16 04:01:03;;;;;;;1.58;1.17;;;22.30;80.20;;;;;;13084983;22;20406;-85
2022/07/16 04:06:06;;;;;;;1.42;1.30;;;22.30;80.20;;;;;;13084890;22;20213;-85
2022/07/16 04:11:09;;;;;;;1.25;1.05;;;22.30;80.00;;;;;;13113637;22;20244;-85
2022/07/16 04:16:11;;;;;;;2.35;0.90;;;22.30;80.10;;;;;;13114193;22;20164;-86
2022/07/16 04:21:14;;;;;;;3.78;1.35;;;22.30;80.10;;;;;;13087522;22;20252;-85
2022/07/16 04:26:16;;;;;;;1.50;0.80;;;22.30;80.20;;;;;;13133179;22;20201;-85
2022/07/16 04:31:19;;;;;;;1.55;1.23;;;22.40;80.20;;;;;;13086041;22;20244;-85
2022/07/16 04:36:22;;;;;;;1.95;1.38;;;22.50;80.00;;;;;;13104815;22;20226;-86
2022/07/16 04:41:25;;;;;;;1.45;1.13;;;22.50;79.70;;;;;;13085552;22;20268;-86
2022/07/16 04:46:27;;;;;;;2.85;1.15;;;22.50;79.60;;;;;;13087526;22;20205;-86
2022/07/16 04:51:30;;;;;;;1.40;1.02;;;22.50;79.60;;;;;;13113455;22;20195;-85
2022/07/16 04:56:32;;;;;;;1.35;1.10;;;22.50;79.80;;;;;;13059101;22;20208;-86
2022/07/16 05:01:35;;;;;;;2.03;1.25;;;22.50;80.00;;;;;;13084255;22;20283;-86
2022/07/16 05:06:37;;;;;;;1.20;0.80;;;22.50;79.90;;;;;;13083414;22;20240;-86
2022/07/16 05:11:40;;;;;;;1.20;1.08;;;22.60;79.80;;;;;;13083040;22;20232;-86
2022/07/16 05:16:43;;;;;;;1.63;1.20;;;22.60;79.40;;;;;;13084074;22;20256;-86
2022/07/16 05:21:45;;;;;;;1.77;1.00;;;22.70;79.30;;;;;;13040505;22;20189;-86
2022/07/16 05:26:47;;;;;;;1.00;0.90;;;22.60;79.50;;;;;;13061418;22;20520;-86
2022/07/16 05:31:50;;;;;;;0.88;0.73;;;22.60;79.70;;;;;;13032711;22;20192;-85
2022/07/16 05:36:53;;;;;;;1.08;0.77;;;22.60;79.90;;;;;;13003600;22;20176;-86
2022/07/16 05:42:01;;;;;;;1.35;1.25;;;22.60;79.50;;;;;;13077247;22;20189;-86
2022/07/16 05:47:04;;;;;;;1.35;1.05;;;22.50;80.10;;;;;;13072553;22;20165;-86
2022/07/16 05:52:06;;;;;;;2.55;1.55;;;22.60;80.20;;;;;;13028375;22;20173;-86
2022/07/16 05:57:09;;;;;;;1.10;0.80;;;22.60;80.30;;;;;;13056068;22;20187;-85
2022/07/16 06:02:12;;;;;;;0.82;0.80;;;22.60;80.10;;;;;;13054605;22;20185;-85
2022/07/16 06:07:15;;;;;;;1.15;1.05;;;22.60;80.50;;;;;;13052024;22;20208;-86
2022/07/16 06:12:17;;;;;;;1.70;1.08;;;22.30;81.40;;;;;;13027842;22;20165;-86
2022/07/16 06:17:21;;;;;;;1.40;1.05;;;22.30;81.70;;;;;;13027039;22;20246;-86
2022/07/16 06:22:24;;;;;;;2.08;0.98;;;22.40;81.20;;;;;;13026935;22;20251;-86
2022/07/16 06:27:26;;;;;;;1.15;1.00;;;22.20;83.00;;;;;;13028949;22;20266;-86
2022/07/16 06:32:29;;;;;;;1.60;1.10;;;22.30;82.70;;;;;;13024657;22;20246;-86
2022/07/16 06:37:32;;;;;;;1.33;0.77;;;22.50;81.80;;;;;;12993027;22;20180;-86
2022/07/16 06:42:35;;;;;;;2.15;1.13;;;22.70;80.70;;;;;;13046526;22;20211;-86
2022/07/16 06:47:42;;;;;;;1.30;0.82;;;22.60;81.20;;;;;;13018073;22;20279;-86
2022/07/16 06:52:44;;;;;;;0.70;0.70;;;22.60;81.20;;;;;;13046075;22;20168;-86
2022/07/16 06:57:47;;;;;;;1.40;0.82;;;22.70;81.40;;;;;;13045694;22;20191;-86
2022/07/16 07:02:49;;;;;;;2.28;1.17;;;22.90;80.30;;;;;;12992419;22;20196;-87
2022/07/16 07:07:52;;;;;;;3.15;0.90;;;22.70;80.90;;;;;;12991630;22;20172;-86
2022/07/16 07:12:56;;;;;;;1.00;0.85;;;22.70;81.10;;;;;;13045207;22;20525;-86
2022/07/16 07:17:58;;;;;;;2.05;1.00;;;22.80;80.70;;;;;;12990718;22;20499;-86
2022/07/16 07:23:01;;;;;;;1.52;0.90;;;22.90;80.60;;;;;;13014521;22;20201;-86
2022/07/16 07:28:04;;;;;;;2.33;0.80;;;22.70;81.10;;;;;;13014222;22;20242;-87
2022/07/16 07:33:07;;;;;;;1.20;0.73;;;22.70;81.30;;;;;;13012991;22;20263;-87
2022/07/16 07:38:09;;;;;;;2.70;1.42;;;22.90;80.60;;;;;;13015894;22;20298;-87
2022/07/16 07:43:18;;;;;;;3.22;1.50;;;22.90;80.70;;;;;;13016212;22;20293;-88
2022/07/16 07:48:20;;;;;;;1.58;1.23;;;22.90;79.60;;;;;;13015498;22;20242;-87
2022/07/16 07:53:23;;;;;;;1.35;0.80;;;22.80;81.40;;;;;;13017099;22;20177;-87
2022/07/16 07:58:26;;;;;;;1.25;0.95;;;22.90;81.00;;;;;;13017633;22;20173;-87
2022/07/16 08:03:29;;;;;;;1.27;1.00;;;22.90;80.90;;;;;;13044745;22;20189;-88
2022/07/16 08:08:32;;;;;;;0.85;0.75;;;22.80;81.40;;;;;;13017000;22;20223;-87
2022/07/16 08:13:35;;;;;;;1.98;1.10;;;22.50;82.80;;;;;;13044710;22;20165;-88
2022/07/16 08:18:37;;;;;;;1.55;1.00;;;22.30;84.10;;;;;;13019772;22;20223;-87
2022/07/16 08:29:01;;;;;;;1.60;0.80;;;22.30;84.60;;;;;;13065064;22;20219;-88
2022/07/16 08:34:04;;;;;;;1.13;0.75;;;22.20;88.10;;;;;;13047421;22;20193;-89
2022/07/16 08:39:06;;;;;;;0.90;0.85;;;22.30;86.30;;;;;;13019642;22;20185;-89
2022/07/16 08:44:11;;;;;;;2.47;0.85;;;22.00;91.30;;;;;;13047248;22;20161;-90
2022/07/16 08:49:14;;;;;;;1.25;0.75;;;21.80;90.40;;;;;;13020470;22;20169;-90
2022/07/16 08:54:21;;;;;;;0.70;0.65;;;22.00;89.80;;;;;;13048233;22;20548;-89
2022/07/16 08:59:28;;;;;;;1.77;1.02;;;21.80;91.50;;;;;;13046642;22;20235;-90
2022/07/16 09:04:30;;;;;;;1.10;0.93;;;21.90;91.00;;;;;;13017930;22;20165;-89
2022/07/16 09:09:33;;;;;;;2.00;1.05;;;22.10;90.30;;;;;;13043660;22;20206;-90
2022/07/16 09:14:36;;;;;;;1.35;0.80;;;22.00;90.70;;;;;;13019309;22;20177;-95
2022/07/16 09:19:39;;;;;;;0.88;0.75;;;21.80;93.90;;;;;;13019639;22;20196;-91
2022/07/16 09:24:48;;;;;;;0.88;0.80;;;22.10;91.30;;;;;;13019436;22;20246;-91
2022/07/16 09:30:02;;;;;;;0.60;0.60;;;22.10;91.30;;;;;;13034926;22;20196;-93
2022/07/16 09:35:10;;;;;;;0.90;0.57;;;22.20;91.00;;;;;;13048396;22;20173;-92
2022/07/16 09:40:14;;;;;;;1.15;0.88;;;22.10;92.00;;;;;;13020280;22;20215;-92
2022/07/16 09:45:21;;;;;;;1.30;0.80;;;22.00;92.20;;;;;;12992687;22;20235;-91
2022/07/16 09:50:35;;;;;;;0.82;0.80;;;22.00;94.10;;;;;;13045793;22;20199;-91
2022/07/16 09:55:54;;;;;;;1.55;1.00;;;21.90;94.30;;;;;;13037658;22;20226;-93
2022/07/16 10:00:58;;;;;;;3.60;1.10;;;22.00;92.70;;;;;;12993195;22;20201;-85
2022/07/16 10:06:01;;;;;;;1.70;1.08;;;21.40;97.70;;;;;;13045826;22;20282;-85
2022/07/16 10:11:05;;;;;;;1.10;0.82;;;21.40;99.50;;;;;;13045041;22;20165;-86
2022/07/16 10:16:08;;;;;;;1.50;0.93;;;21.80;96.80;;;;;;13044791;22;20173;-85
2022/07/16 10:21:16;;;;;;;1.92;0.80;;;22.00;96.20;;;;;;13064358;22;20242;-86
2022/07/16 10:26:22;;;;;;;1.77;0.63;;;21.90;96.50;;;;;;13063880;22;20639;-86
2022/07/16 10:37:23;;;;;;;1.27;0.77;;;22.00;96.50;;;;;;13043847;22;20513;-87
2022/07/16 10:42:27;;;;;;;1.13;0.82;;;22.20;96.00;;;;;;13035036;22;20211;-86
2022/07/16 10:47:55;;;;;;;2.78;0.90;;;22.40;96.80;;;;;;13044112;22;20794;-86
2022/07/16 10:52:59;;;;;;;1.60;0.88;;;22.20;96.50;;;;;;13015805;22;20181;-86
2022/07/16 10:58:02;;;;;;;2.80;0.93;;;22.40;96.00;;;;;;12991476;22;20258;-86
2022/07/16 11:03:05;;;;;;;0.85;0.73;;;22.30;98.20;;;;;;13043543;22;20189;-85
2022/07/16 11:08:21;;;;;;;1.00;0.90;;;22.30;96.40;;;;;;13038973;22;20191;-85
2022/07/16 11:13:23;;;;;;;2.78;1.00;;;22.40;96.50;;;;;;13015497;22;20515;-85
2022/07/16 11:18:36;;;;;;;0.95;0.80;;;22.50;95.70;;;;;;13016959;22;20234;-85
2022/07/16 11:23:59;;;;;;;1.33;0.85;;;22.30;97.00;;;;;;13062548;22;20242;-85
2022/07/16 11:29:03;;;;;;;2.35;0.80;;;22.00;97.80;;;;;;13036887;22;20545;-85
2022/07/16 11:34:08;;;;;;;1.98;1.13;;;22.30;96.60;;;;;;13015594;22;20204;-86
2022/07/16 11:39:16;;;;;;;0.60;0.60;;;22.50;96.10;;;;;;12989944;22;20177;-86
2022/07/16 11:44:31;;;;;;;2.55;1.00;;;22.50;96.90;;;;;;12989788;22;20830;-85
2022/07/16 11:49:42;;;;;;;2.45;0.90;;;22.10;99.90;;;;;;13047679;22;20553;-86
2022/07/16 11:54:51;;;;;;;1.33;1.10;;;22.10;99.20;;;;;;13064664;22;20156;-86
2022/07/16 11:59:55;;;;;;;1.35;0.90;;;22.20;97.60;;;;;;13020489;22;20214;-86
2022/07/16 12:04:59;;;;;;;1.13;0.93;;;22.00;99.90;;;;;;13019058;22;20185;-86
2022/07/16 12:10:06;;;;;;;1.27;1.05;;;21.20;99.90;;;;;;13047824;22;20549;-85
2022/07/16 12:15:12;;;;;;;1.92;0.52;;;20.90;99.90;;;;;;13038559;22;20169;-85
2022/07/16 12:20:19;;;;;;;1.65;0.70;;;21.10;99.90;;;;;;13022129;22;20700;-85
2022/07/16 12:25:37;;;;;;;3.10;1.23;;;20.40;99.90;;;;;;13045493;22;20177;-85
2022/07/16 12:30:51;;;;;;;2.45;1.10;;;20.30;99.90;;;;;;13046378;22;20227;-86
2022/07/16 12:35:57;;;;;;;0.73;0.73;;;21.60;99.90;;;;;;12993067;22;20673;-85
2022/07/16 12:41:00;;;;;;;4.40;1.05;;;21.20;99.20;;;;;;12994299;22;20201;-85
2022/07/16 12:46:03;;;;;;;2.08;0.82;;;21.60;98.80;;;;;;13020008;22;20701;-85
2022/07/16 12:51:06;;;;;;;1.33;1.02;;;21.50;99.20;;;;;;13065516;22;20169;-86
2022/07/16 13:01:30;;;;;;;1.13;1.00;;;20.50;99.90;;;;;;13017946;22;20201;-86
2022/07/16 13:06:33;;;;;;;1.00;0.70;;;21.40;99.90;;;;;;13018658;22;20177;-85
2022/07/16 13:11:37;;;;;;;1.23;0.95;;;21.10;99.90;;;;;;13045631;22;20165;-85
2022/07/16 13:16:40;;;;;;;1.05;0.77;;;21.30;99.90;;;;;;13019373;22;20234;-85
2022/07/16 13:21:43;;;;;;;1.95;1.25;;;21.10;99.90;;;;;;12993267;22;20200;-86
2022/07/16 13:26:45;;;;;;;0.70;0.60;;;21.50;99.70;;;;;;13046568;22;20165;-85
2022/07/16 13:32:08;;;;;;;1.42;0.85;;;21.60;99.50;;;;;;13056696;22;20254;-85
2022/07/16 13:37:11;;;;;;;1.35;0.73;;;21.90;98.80;;;;;;13046727;22;20173;-85
2022/07/16 13:42:13;;;;;;;0.70;0.70;;;21.90;99.50;;;;;;13018801;22;20567;-84
2022/07/16 13:47:16;;;;;;;1.38;0.85;;;21.50;99.90;;;;;;13018552;22;20169;-85
2022/07/16 13:52:19;;;;;;;0.90;0.70;;;21.50;99.90;;;;;;12992432;22;20177;-84
2022/07/16 14:02:43;;;;;;;2.92;0.90;;;22.20;99.10;;;;;;13058094;22;20185;-84
2022/07/16 14:07:46;;;;;;;1.00;0.70;;;21.70;99.90;;;;;;13017407;22;20207;-84
2022/07/16 14:12:48;;;;;;;0.70;0.70;;;22.00;99.40;;;;;;13044266;22;20207;-84
2022/07/16 14:17:51;;;;;;;1.88;0.70;;;21.50;99.90;;;;;;13044874;22;20230;-84
2022/07/16 14:22:54;;;;;;;0.93;0.82;;;22.10;99.20;;;;;;13044405;22;20188;-84
2022/07/16 14:27:57;;;;;;;0.93;0.68;;;22.30;98.10;;;;;;13044658;22;20165;-84
2022/07/16 14:32:59;;;;;;;1.08;0.80;;;22.40;97.10;;;;;;13044354;22;20197;-84
2022/07/16 14:38:03;;;;;;;1.95;1.25;;;21.60;99.90;;;;;;13016366;22;20568;-84
2022/07/16 14:43:07;;;;;;;4.05;1.00;;;21.30;99.90;;;;;;13043992;22;20239;-84
2022/07/16 14:48:10;;;;;;;0.90;0.80;;;20.90;96.40;;;;;;13017528;22;20169;-84
2022/07/16 14:53:13;;;;;;;1.15;0.93;;;20.20;99.90;;;;;;13043833;22;20165;-84
2022/07/16 14:58:15;;;;;;;1.95;0.73;;;21.40;99.40;;;;;;13015046;22;20177;-85
2022/07/16 15:03:18;;;;;;;1.00;0.80;;;21.30;96.20;;;;;;12990272;22;20231;-85
2022/07/16 15:08:20;;;;;;;1.48;0.70;;;22.00;98.90;;;;;;13011980;22;20716;-85
2022/07/16 15:13:23;;;;;;;1.00;0.80;;;21.10;99.90;;;;;;13040185;22;20169;-85
2022/07/16 15:18:26;;;;;;;0.85;0.63;;;21.50;99.70;;;;;;13040326;22;20195;-85
2022/07/16 15:23:28;;;;;;;0.98;0.82;;;22.20;97.90;;;;;;13040626;22;20188;-85
2022/07/16 15:28:31;;;;;;;0.85;0.73;;;22.40;97.10;;;;;;13046282;22;20165;-85
2022/07/16 15:33:37;;;;;;;1.33;0.70;;;22.50;96.80;;;;;;13017231;22;20200;-84
2022/07/16 15:38:49;;;;;;;1.50;0.90;;;22.40;95.80;;;;;;13063502;22;20548;-85
2022/07/16 15:43:52;;;;;;;0.60;0.60;;;22.40;96.70;;;;;;13043855;22;20282;-84
2022/07/16 15:48:54;;;;;;;1.95;0.75;;;22.40;96.70;;;;;;13015985;22;20239;-85
2022/07/16 15:53:57;;;;;;;0.90;0.60;;;22.00;93.80;;;;;;13043225;22;20165;-85
2022/07/16 15:58:59;;;;;;;1.20;1.02;;;22.00;97.50;;;;;;13015105;22;20522;-84
2022/07/16 16:04:07;;;;;;;2.17;0.88;;;21.90;97.80;;;;;;13016512;22;20197;-85
2022/07/16 16:09:10;;;;;;;0.60;0.47;;;21.80;97.60;;;;;;13047260;22;20165;-85
2022/07/16 16:14:13;;;;;;;0.90;0.80;;;20.60;99.10;;;;;;13046977;22;20558;-84
2022/07/16 16:19:16;;;;;;;1.38;0.60;;;21.40;96.20;;;;;;13050271;22;20513;-90
2022/07/16 16:24:19;;;;;;;0.50;0.40;;;20.90;95.60;;;;;;13019562;22;20196;-90
2022/07/16 16:29:22;;;;;;;2.58;0.77;;;19.20;97.40;;;;;;13019433;22;20177;-91
2022/07/16 16:34:24;;;;;;;1.30;0.65;;;20.00;97.00;;;;;;13019156;22;20254;-90
2022/07/16 16:39:27;;;;;;;1.75;0.70;;;20.10;95.00;;;;;;13022774;22;20479;-91
2022/07/16 16:44:30;;;;;;;1.52;0.68;;;19.90;96.00;;;;;;13021163;22;20211;-93
2022/07/16 16:49:34;;;;;;;2.75;0.60;;;20.80;94.40;;;;;;12995350;22;20235;-92
2022/07/16 16:54:37;;;;;;;3.72;0.57;;;21.20;91.90;;;;;;12996577;22;20181;-92
2022/07/16 16:59:40;;;;;;;0.88;0.43;;;21.00;91.50;;;;;;13019512;22;20181;-92
2022/07/16 17:04:42;;;;;;;4.18;0.80;;;20.70;89.10;;;;;;13021120;22;20189;-92
2022/07/16 17:09:45;;;;;;;1.10;0.60;;;20.60;90.30;;;;;;13018469;22;20234;-91
2022/07/16 17:14:48;;;;;;;1.77;0.50;;;20.70;90.70;;;;;;12991273;22;20181;-90
2022/07/16 17:19:50;;;;;;;2.97;0.50;;;21.00;90.00;;;;;;13015387;22;20219;-93
2022/07/16 17:24:53;;;;;;;1.27;0.32;;;21.00;90.50;;;;;;13017472;22;20189;-91
2022/07/16 17:29:56;;;;;;;2.17;0.90;;;20.90;91.10;;;;;;12992619;22;20201;-91
2022/07/16 17:34:58;;;;;;;2.45;1.23;;;20.00;93.90;;;;;;13019244;22;20506;-90
2022/07/16 17:40:10;;;;;;;3.10;0.93;;;;;;;;;;13017946;22;20487;-90
2022/07/16 17:45:14;;;;;;;2.17;0.65;;;18.70;98.10;;;;;;13043768;22;20189;-90
2022/07/16 17:50:17;;;;;;;2.10;0.65;;;19.40;96.80;;;;;;13006904;22;20214;-90
2022/07/16 17:55:20;;;;;;;3.42;0.60;;;19.80;96.20;;;;;;13006749;22;20377;-91
2022/07/16 18:00:23;;;;;;;2.25;0.73;;;20.50;95.80;;;;;;13030886;22;20639;-89
2022/07/16 18:05:25;;;;;;;4.50;0.60;;;20.90;94.40;;;;;;12999541;22;20262;-90
2022/07/16 18:10:29;;;;;;;1.67;0.50;;;21.00;93.80;;;;;;12981873;22;20177;-91
2022/07/16 18:15:32;;;;;;;2.95;0.80;;;21.30;93.30;;;;;;13013010;22;20231;-89
2022/07/16 18:20:35;;;;;;;1.42;0.70;;;20.90;93.00;;;;;;12990763;22;20185;-89
2022/07/16 18:25:39;;;;;;;2.47;0.90;;;20.90;93.20;;;;;;13046269;22;20287;-89
2022/07/16 18:30:42;;;;;;;2.28;0.95;;;20.90;93.20;;;;;;13045249;22;20193;-89
2022/07/16 18:35:45;;;;;;;2.15;0.80;;;21.10;92.70;;;;;;13042989;22;20181;-89
2022/07/16 18:40:48;;;;;;;5.40;0.90;;;21.10;93.00;;;;;;13035827;22;20165;-89
2022/07/16 18:45:51;;;;;;;7.40;1.63;;;20.90;91.50;;;;;;13044373;22;20246;-89
2022/07/16 18:50:53;;;;;;;4.20;0.82;;;18.50;99.90;;;;;;13016813;22;20692;-89
2022/07/16 18:55:56;;;;;;;2.30;0.77;;;19.40;98.70;;;;;;13016795;22;20195;-89
2022/07/16 19:00:58;;;;;;;3.30;0.63;;;19.70;99.90;;;;;;12988191;22;20679;-89
2022/07/16 19:06:02;;;;;;;1.38;0.57;;;20.00;99.90;;;;;;13014654;22;20204;-89
2022/07/16 19:11:05;;;;;;;1.35;0.57;;;20.60;98.50;;;;;;13014342;22;20173;-90
2022/07/16 19:16:07;;;;;;;0.65;0.47;;;20.40;97.40;;;;;;13015407;22;20188;-89
2022/07/16 19:21:10;;;;;;;9.82;1.05;;;20.50;97.50;;;;;;13016171;22;20218;-90
2022/07/16 19:26:16;;;;;;;2.67;1.20;;;20.80;96.80;;;;;;13013933;22;20184;-88
2022/07/16 19:31:19;;;;;;;4.40;1.70;;;20.30;94.70;;;;;;13014417;22;20205;-85
2022/07/16 19:36:22;;;;;;;2.05;0.90;;;20.60;95.80;;;;;;13061624;22;20226;-86
2022/07/16 19:41:25;;;;;;;1.65;0.90;;;21.20;94.40;;;;;;13013854;22;20503;-86
2022/07/16 19:46:28;;;;;;;1.77;0.85;;;21.60;93.40;;;;;;13039980;22;20161;-86
2022/07/16 19:51:31;;;;;;;3.25;1.13;;;22.00;92.30;;;;;;13059561;22;20218;-86
2022/07/16 20:01:56;;;;;;;3.85;1.08;;;22.50;91.30;;;;;;13056271;22;20255;-87
2022/07/16 20:06:58;;;;;;;2.17;0.80;;;22.70;90.80;;;;;;13039466;22;20499;-86
2022/07/16 20:12:01;;;;;;;1.80;0.95;;;22.70;90.70;;;;;;13014399;22;20255;-86
2022/07/16 20:17:03;;;;;;;2.50;0.85;;;22.90;90.40;;;;;;13045857;22;20170;-86
2022/07/16 20:22:06;;;;;;;1.50;0.82;;;23.00;90.10;;;;;;13044813;22;20185;-86
2022/07/16 20:27:11;;;;;;;2.17;0.77;;;23.10;89.40;;;;;;13043695;22;20165;-87
2022/07/16 20:32:13;;;;;;;2.25;0.80;;;23.20;89.20;;;;;;13052580;22;20227;-86
2022/07/16 20:37:17;;;;;;;2.28;1.45;;;23.10;89.30;;;;;;13015808;22;20192;-87
2022/07/16 20:42:22;;;;;;;1.67;0.98;;;23.20;89.10;;;;;;12991261;22;20254;-86
2022/07/16 20:47:25;;;;;;;1.58;0.63;;;23.10;89.40;;;;;;13043600;22;20219;-86
2022/07/16 20:52:28;;;;;;;1.98;0.77;;;23.10;89.60;;;;;;13061111;22;20161;-87
2022/07/16 20:57:31;;;;;;;1.77;1.08;;;23.20;89.50;;;;;;13043653;22;20906;-87
2022/07/16 21:02:35;;;;;;;2.75;0.98;;;23.20;89.10;;;;;;13042120;22;20235;-87
2022/07/16 21:07:38;;;;;;;2.00;1.13;;;23.20;89.20;;;;;;13016400;22;20161;-87
2022/07/16 21:12:40;;;;;;;1.05;0.95;;;23.30;89.10;;;;;;13016350;22;20169;-88
2022/07/16 21:17:43;;;;;;;1.58;1.02;;;23.30;89.10;;;;;;13042649;22;20169;-86
2022/07/16 21:22:49;;;;;;;1.30;0.75;;;23.20;89.30;;;;;;13061254;22;20230;-87
2022/07/16 21:27:51;;;;;;;1.48;0.77;;;23.20;89.10;;;;;;13043506;22;20192;-87
2022/07/16 21:32:54;;;;;;;2.28;0.77;;;23.10;88.20;;;;;;13015826;22;20715;-88
2022/07/16 21:37:57;;;;;;;1.10;0.50;;;23.00;90.30;;;;;;13042536;22;20215;-87
2022/07/16 21:42:59;;;;;;;1.20;0.65;;;23.10;90.30;;;;;;13041877;22;20519;-87
2022/07/16 21:48:02;;;;;;;1.35;0.60;;;23.20;90.20;;;;;;13015249;22;20173;-87
2022/07/16 21:53:05;;;;;;;1.48;0.93;;;23.20;90.20;;;;;;13042473;22;20792;-88
2022/07/16 21:58:07;;;;;;;1.83;1.20;;;23.10;89.10;;;;;;13016199;22;20177;-87
2022/07/16 22:03:10;;;;;;;2.90;1.00;;;23.10;90.10;;;;;;13056024;22;20181;-87
2022/07/16 22:08:13;;;;;;;1.48;0.82;;;23.10;90.40;;;;;;13013203;22;20211;-87
2022/07/16 22:13:16;;;;;;;1.17;0.82;;;22.90;91.00;;;;;;13041497;22;20177;-87
2022/07/16 22:18:19;;;;;;;1.85;0.80;;;22.70;91.00;;;;;;13012697;22;20189;-87
2022/07/16 22:23:26;;;;;;;1.42;0.90;;;23.00;90.90;;;;;;13014807;22;20734;-87
2022/07/16 22:28:29;;;;;;;1.15;1.05;;;23.10;91.20;;;;;;13012879;22;20177;-87
2022/07/16 22:33:31;;;;;;;1.60;0.70;;;23.10;90.90;;;;;;13041377;22;20196;-87
2022/07/16 22:38:34;;;;;;;1.38;0.63;;;23.10;91.00;;;;;;13013262;22;20165;-88
2022/07/16 22:43:36;;;;;;;3.15;0.93;;;23.00;91.30;;;;;;13014910;22;20201;-87
2022/07/16 22:48:39;;;;;;;1.13;0.77;;;22.90;91.30;;;;;;13044051;22;20195;-88
2022/07/16 22:53:42;;;;;;;1.20;0.60;;;22.90;91.60;;;;;;13045057;22;20246;-87
2022/07/16 22:58:45;;;;;;;2.67;1.13;;;22.90;91.60;;;;;;13017191;22;20230;-87
2022/07/16 23:03:47;;;;;;;1.27;0.73;;;22.70;92.00;;;;;;13055886;22;20507;-86
2022/07/16 23:08:50;;;;;;;1.33;0.60;;;22.50;92.80;;;;;;13017141;22;20173;-87
2022/07/16 23:13:53;;;;;;;1.25;0.70;;;22.60;92.40;;;;;;13017706;22;20169;-87
2022/07/16 23:18:55;;;;;;;2.20;0.73;;;22.80;91.20;;;;;;13044177;22;20199;-86
2022/07/16 23:23:58;;;;;;;1.13;0.68;;;22.50;92.60;;;;;;13015983;22;20196;-87
2022/07/16 23:29:01;;;;;;;1.33;0.70;;;22.40;93.30;;;;;;13044885;22;20477;-87
2022/07/16 23:34:03;;;;;;;2.15;0.82;;;22.50;92.90;;;;;;13044559;22;20227;-87
2022/07/16 23:39:06;;;;;;;2.42;0.75;;;22.20;93.70;;;;;;13044461;22;20168;-87
2022/07/16 23:44:08;;;;;;;1.25;0.55;;;22.50;93.30;;;;;;13015917;22;20598;-87
2022/07/16 23:49:11;;;;;;;0.98;0.60;;;22.60;93.00;;;;;;13021163;22;20165;-87
2022/07/16 23:54:14;;;;;;;2.42;1.00;;;22.60;92.90;;;;;;13049689;22;20492;-86
2022/07/16 23:59:17;;;;;;;1.13;0.57;;;22.50;92.30;;;;;;13067905;22;20481;-87
